createdAt,value
2018-06-21T00:00:21.102Z,20.20
2018-06-21T00:02:49.353Z,20.20
2018-06-21T00:05:17.570Z,20.10
2018-06-21T00:07:45.765Z,20.10
2018-06-21T00:10:13.984Z,20.10
2018-06-21T00:12:42.210Z,20.10
2018-06-21T00:15:10.452Z,20.10
2018-06-21T00:17:38.696Z,20.10
2018-06-21T00:20:07.730Z,20.00
2018-06-21T00:22:35.936Z,20.00
2018-06-21T00:25:04.138Z,20.00
2018-06-21T00:27:33.168Z,19.90
2018-06-21T00:30:01.370Z,19.80
2018-06-21T00:32:29.590Z,19.80
2018-06-21T00:34:58.566Z,19.70
2018-06-21T00:37:27.556Z,19.70
2018-06-21T00:39:55.770Z,19.70
2018-06-21T00:42:24.032Z,19.70
2018-06-21T00:44:53.001Z,19.60
2018-06-21T00:47:21.258Z,19.60
2018-06-21T00:49:49.460Z,19.60
2018-06-21T00:52:17.676Z,19.50
2018-06-21T00:54:45.922Z,19.50
2018-06-21T00:57:14.951Z,19.50
2018-06-21T00:59:43.154Z,19.50
2018-06-21T01:02:11.417Z,19.50
2018-06-21T01:04:39.665Z,19.50
2018-06-21T01:07:07.880Z,19.50
2018-06-21T01:09:36.088Z,19.40
2018-06-21T01:12:05.080Z,19.30
2018-06-21T01:14:33.287Z,19.30
2018-06-21T01:17:01.555Z,19.30
2018-06-21T01:19:30.560Z,19.20
2018-06-21T01:21:58.817Z,19.20
2018-06-21T01:24:27.830Z,19.20
2018-06-21T01:26:56.058Z,19.20
2018-06-21T01:29:24.356Z,19.20
2018-06-21T01:31:52.554Z,19.10
2018-06-21T01:34:20.770Z,19.10
2018-06-21T01:36:49.031Z,19.10
2018-06-21T01:39:17.270Z,19.00
2018-06-21T01:41:46.242Z,19.00
2018-06-21T01:44:14.441Z,19.00
2018-06-21T01:46:43.482Z,18.90
2018-06-21T01:49:11.744Z,18.90
2018-06-21T01:51:39.953Z,18.90
2018-06-21T01:54:08.201Z,18.80
2018-06-21T01:56:36.423Z,18.80
2018-06-21T01:59:04.671Z,18.80
2018-06-21T02:01:32.888Z,18.80
2018-06-21T02:04:01.860Z,18.70
2018-06-21T02:06:30.079Z,18.70
2018-06-21T02:08:58.292Z,18.70
2018-06-21T02:11:26.511Z,18.70
2018-06-21T02:13:55.487Z,18.50
2018-06-21T02:16:23.753Z,18.50
2018-06-21T02:18:51.995Z,18.50
2018-06-21T02:21:20.212Z,18.40
2018-06-21T02:23:48.414Z,18.40
2018-06-21T02:26:17.444Z,18.40
2018-06-21T02:28:45.688Z,18.40
2018-06-21T02:31:14.706Z,18.20
2018-06-21T02:33:42.908Z,18.20
2018-06-21T02:36:11.186Z,18.30
2018-06-21T02:38:39.374Z,18.20
2018-06-21T02:41:07.599Z,18.20
2018-06-21T02:43:35.865Z,18.10
2018-06-21T02:46:04.875Z,18.00
2018-06-21T02:48:33.119Z,18.00
2018-06-21T02:51:01.374Z,18.00
2018-06-21T02:53:29.622Z,18.00
2018-06-21T02:55:57.841Z,18.00
2018-06-21T02:58:26.089Z,18.00
2018-06-21T03:00:54.309Z,18.00
2018-06-21T03:03:23.321Z,18.00
2018-06-21T03:05:51.583Z,18.00
2018-06-21T03:08:20.558Z,17.90
2018-06-21T03:10:48.822Z,17.90
2018-06-21T03:13:17.067Z,17.90
2018-06-21T03:15:45.280Z,17.90
2018-06-21T03:18:13.535Z,17.90
2018-06-21T03:20:41.790Z,18.00
2018-06-21T03:23:10.743Z,17.90
2018-06-21T03:25:39.749Z,18.00
2018-06-21T03:28:08.726Z,18.00
2018-06-21T03:30:37.742Z,18.00
2018-06-21T03:33:06.757Z,17.90
2018-06-21T03:35:34.968Z,17.90
2018-06-21T03:38:03.226Z,17.90
2018-06-21T03:40:31.482Z,17.90
2018-06-21T03:42:59.751Z,18.00
2018-06-21T03:45:28.750Z,18.00
2018-06-21T03:47:56.999Z,18.00
2018-06-21T03:50:25.251Z,18.00
2018-06-21T03:52:53.496Z,18.00
2018-06-21T03:55:21.748Z,18.00
2018-06-21T03:57:50.000Z,18.10
2018-06-21T04:00:18.206Z,18.10
2018-06-21T04:02:46.458Z,18.10
2018-06-21T04:05:15.473Z,18.20
2018-06-21T04:07:43.702Z,18.20
2018-06-21T04:10:11.901Z,18.20
2018-06-21T04:12:40.916Z,18.30
2018-06-21T04:15:09.918Z,18.40
2018-06-21T04:17:38.212Z,18.30
2018-06-21T04:20:06.444Z,18.40
2018-06-21T04:22:34.761Z,18.50
2018-06-21T04:25:02.957Z,18.50
2018-06-21T04:27:31.210Z,18.60
2018-06-21T04:29:59.411Z,18.60
2018-06-21T04:32:27.765Z,18.70
2018-06-21T04:34:55.880Z,18.80
2018-06-21T04:37:24.134Z,18.90
2018-06-21T04:39:52.380Z,18.90
2018-06-21T04:42:20.596Z,19.00
2018-06-21T04:44:48.795Z,19.00
2018-06-21T04:47:17.021Z,19.10
2018-06-21T04:49:45.227Z,19.10
2018-06-21T04:52:13.499Z,19.20
2018-06-21T04:54:41.749Z,19.30
2018-06-21T04:57:09.974Z,19.40
2018-06-21T04:59:38.187Z,19.50
2018-06-21T05:02:06.458Z,19.50
2018-06-21T05:04:35.478Z,19.70
2018-06-21T05:07:03.719Z,19.70
2018-06-21T05:09:32.705Z,19.70
2018-06-21T05:12:00.927Z,19.70
2018-06-21T05:14:29.176Z,19.70
2018-06-21T05:16:58.151Z,20.00
2018-06-21T05:19:27.182Z,20.00
2018-06-21T05:21:55.452Z,20.00
2018-06-21T05:24:23.721Z,20.10
2018-06-21T05:26:52.749Z,20.20
2018-06-21T05:29:20.963Z,20.20
2018-06-21T05:31:49.193Z,20.20
2018-06-21T05:34:17.401Z,20.30
2018-06-21T05:36:45.673Z,20.40
2018-06-21T05:39:13.898Z,20.40
2018-06-21T05:41:42.935Z,20.60
2018-06-21T05:44:11.176Z,20.60
2018-06-21T05:46:39.405Z,20.70
2018-06-21T05:49:07.611Z,20.80
2018-06-21T05:51:36.605Z,21.00
2018-06-21T05:54:05.583Z,21.00
2018-06-21T05:56:34.665Z,21.10
2018-06-21T05:59:02.835Z,21.10
2018-06-21T06:01:31.065Z,21.20
2018-06-21T06:03:59.329Z,21.30
2018-06-21T06:06:28.303Z,21.50
2018-06-21T06:08:57.280Z,21.50
2018-06-21T06:11:25.547Z,21.50
2018-06-21T06:13:53.811Z,21.60
2018-06-21T06:16:22.774Z,21.80
2018-06-21T06:18:51.073Z,21.80
2018-06-21T06:21:19.319Z,21.90
2018-06-21T06:23:47.527Z,22.00
2018-06-21T06:26:15.801Z,22.10
2018-06-21T06:28:44.072Z,22.20
2018-06-21T06:31:12.321Z,22.30
2018-06-21T06:33:41.363Z,22.60
2018-06-21T06:36:09.592Z,22.50
2018-06-21T06:38:38.579Z,22.70
2018-06-21T06:41:07.598Z,22.80
2018-06-21T06:43:35.864Z,22.70
2018-06-21T06:46:04.107Z,22.90
2018-06-21T06:48:32.339Z,23.00
2018-06-21T06:51:00.551Z,23.20
2018-06-21T06:53:28.825Z,23.20
2018-06-21T06:55:57.024Z,23.30
2018-06-21T06:58:26.062Z,23.50
2018-06-21T07:00:54.313Z,23.50
2018-06-21T07:03:23.330Z,23.50
2018-06-21T07:05:51.585Z,23.50
2018-06-21T07:08:20.584Z,23.90
2018-06-21T07:10:49.534Z,24.00
2018-06-21T07:13:17.755Z,24.00
2018-06-21T07:15:45.987Z,24.10
2018-06-21T07:18:14.209Z,24.30
2018-06-21T07:20:42.434Z,24.40
2018-06-21T07:23:10.702Z,24.50
2018-06-21T07:25:38.908Z,24.50
2018-06-21T07:28:07.894Z,24.70
2018-06-21T07:30:36.930Z,24.70
2018-06-21T07:33:05.198Z,24.70
2018-06-21T07:35:34.176Z,25.00
2018-06-21T07:38:03.164Z,25.10
2018-06-21T07:40:32.202Z,25.20
2018-06-21T07:43:00.414Z,25.20
2018-06-21T07:45:28.608Z,25.20
2018-06-21T07:47:57.601Z,25.40
2018-06-21T07:50:26.579Z,25.50
2018-06-21T07:52:54.846Z,25.50
2018-06-21T07:55:23.099Z,25.70
2018-06-21T07:57:51.312Z,25.70
2018-06-21T08:00:19.516Z,25.80
2018-06-21T08:02:47.754Z,25.90
2018-06-21T08:05:15.969Z,26.10
2018-06-21T08:07:44.196Z,26.10
2018-06-21T08:10:12.468Z,26.30
2018-06-21T08:12:40.717Z,26.40
2018-06-21T08:15:08.938Z,26.20
2018-06-21T08:17:37.160Z,26.40
2018-06-21T08:20:05.414Z,26.60
2018-06-21T08:22:34.439Z,26.70
2018-06-21T08:25:02.673Z,26.60
2018-06-21T08:27:30.874Z,26.80
2018-06-21T08:29:59.132Z,26.80
2018-06-21T08:32:27.366Z,26.90
2018-06-21T08:34:55.570Z,27.10
2018-06-21T08:37:23.785Z,27.10
2018-06-21T08:39:51.999Z,27.20
2018-06-21T08:42:20.987Z,27.20
2018-06-21T08:44:49.197Z,27.20
2018-06-21T08:47:17.453Z,27.20
2018-06-21T08:49:45.679Z,27.20
2018-06-21T08:52:13.952Z,27.30
2018-06-21T08:54:42.198Z,27.30
2018-06-21T08:57:10.417Z,27.30
2018-06-21T08:59:38.633Z,27.30
2018-06-21T09:02:07.688Z,27.30
2018-06-21T09:04:36.729Z,27.40
2018-06-21T09:07:04.956Z,27.40
2018-06-21T09:09:33.176Z,27.60
2018-06-21T09:12:01.421Z,27.70
2018-06-21T09:14:29.670Z,27.80
2018-06-21T09:16:58.637Z,27.80
2018-06-21T09:19:26.914Z,27.80
2018-06-21T09:21:55.113Z,27.80
2018-06-21T09:24:24.107Z,27.50
2018-06-21T09:26:53.112Z,27.60
2018-06-21T09:29:21.386Z,27.50
2018-06-21T09:31:50.361Z,27.70
2018-06-21T09:34:19.381Z,27.70
2018-06-21T09:36:47.643Z,27.70
2018-06-21T09:42:22.791Z,27.70
2018-06-21T09:44:51.768Z,27.50
2018-06-21T09:47:34.871Z,27.50
2018-06-21T09:50:03.135Z,27.60
2018-06-21T09:52:31.436Z,27.70
2018-06-21T09:54:59.628Z,27.70
2018-06-21T09:57:27.855Z,27.90
2018-06-21T09:59:56.105Z,28.00
2018-06-21T10:02:25.126Z,28.00
2018-06-21T10:04:53.353Z,28.00
2018-06-21T10:07:21.615Z,28.10
2018-06-21T10:09:49.828Z,28.10
2018-06-21T10:12:18.825Z,28.10
2018-06-21T10:14:47.829Z,27.80
2018-06-21T10:17:16.805Z,27.90
2018-06-21T10:19:45.905Z,28.00
2018-06-21T10:22:14.121Z,28.00
2018-06-21T10:24:42.328Z,27.90
2018-06-21T10:27:10.540Z,27.90
2018-06-21T10:29:39.571Z,27.90
2018-06-21T10:32:07.789Z,27.90
2018-06-21T10:34:36.050Z,27.90
2018-06-21T10:37:04.256Z,27.90
2018-06-21T10:39:33.287Z,27.70
2018-06-21T10:42:01.523Z,27.60
2018-06-21T10:44:30.544Z,28.00
2018-06-21T10:46:58.788Z,27.90
2018-06-21T10:49:27.025Z,28.00
2018-06-21T10:51:55.240Z,28.10
2018-06-21T10:54:23.446Z,28.20
2018-06-21T10:56:51.719Z,28.20
2018-06-21T10:59:19.983Z,28.20
2018-06-21T11:01:48.230Z,28.40
2018-06-21T11:04:16.432Z,28.40
2018-06-21T11:06:45.433Z,28.50
2018-06-21T11:09:14.409Z,28.50
2018-06-21T11:11:43.432Z,28.40
2018-06-21T11:14:12.442Z,28.30
2018-06-21T11:16:40.704Z,28.30
2018-06-21T11:19:09.672Z,28.00
2018-06-21T11:21:37.884Z,28.00
2018-06-21T11:24:06.114Z,28.00
2018-06-21T11:26:34.402Z,28.00
2018-06-21T11:29:02.637Z,28.10
2018-06-21T11:31:30.890Z,28.10
2018-06-21T11:33:59.109Z,28.20
2018-06-21T11:36:27.367Z,28.40
2018-06-21T11:38:55.600Z,28.30
2018-06-21T11:41:24.608Z,28.40
2018-06-21T11:43:52.816Z,28.40
2018-06-21T11:46:21.074Z,28.40
2018-06-21T11:48:49.329Z,28.30
2018-06-21T11:51:17.554Z,28.30
2018-06-21T11:53:45.797Z,28.40
2018-06-21T11:56:14.051Z,28.40
2018-06-21T11:58:43.036Z,28.70
2018-06-21T12:01:12.067Z,28.80
2018-06-21T12:03:40.278Z,28.80
2018-06-21T12:06:08.493Z,28.80
2018-06-21T12:08:36.760Z,28.90
2018-06-21T12:11:05.032Z,28.90
2018-06-21T12:13:34.068Z,28.90
2018-06-21T12:16:02.280Z,28.90
2018-06-21T12:18:30.540Z,28.90
2018-06-21T12:20:58.781Z,28.90
2018-06-21T12:23:26.985Z,28.90
2018-06-21T12:25:55.299Z,29.10
2018-06-21T12:28:23.556Z,29.10
2018-06-21T12:30:51.740Z,29.10
2018-06-21T12:33:19.968Z,29.20
2018-06-21T12:35:48.238Z,29.30
2018-06-21T12:38:16.450Z,29.10
2018-06-21T12:40:44.682Z,29.00
2018-06-21T12:43:13.694Z,29.00
2018-06-21T12:45:41.956Z,29.00
2018-06-21T12:48:10.223Z,29.00
2018-06-21T12:50:39.205Z,29.10
2018-06-21T12:53:08.223Z,29.40
2018-06-21T12:55:36.453Z,29.40
2018-06-21T12:58:04.728Z,29.60
2018-06-21T13:00:33.698Z,29.80
2018-06-21T13:03:01.943Z,29.80
2018-06-21T13:05:31.081Z,29.70
2018-06-21T13:07:59.197Z,29.70
2018-06-21T13:13:46.905Z,29.40
2018-06-21T13:16:15.127Z,29.20
2018-06-21T13:18:44.170Z,28.90
2018-06-21T13:21:12.429Z,28.90
2018-06-21T13:23:40.683Z,28.90
2018-06-21T13:26:09.668Z,28.90
2018-06-21T13:28:38.654Z,28.90
2018-06-21T13:31:06.893Z,28.90
2018-06-21T13:33:35.149Z,28.90
2018-06-21T13:36:03.410Z,28.90
2018-06-21T13:38:32.369Z,28.60
2018-06-21T13:41:00.594Z,28.60
2018-06-21T13:43:28.844Z,28.40
2018-06-21T13:45:57.873Z,27.90
2018-06-21T13:48:26.076Z,27.90
2018-06-21T13:50:54.293Z,27.80
2018-06-21T13:53:23.325Z,27.70
2018-06-21T13:55:51.529Z,27.70
2018-06-21T13:58:19.792Z,27.60
2018-06-21T14:00:48.039Z,27.60
2018-06-21T14:03:16.257Z,27.50
2018-06-21T14:05:44.511Z,27.50
2018-06-21T14:08:12.822Z,27.70
2018-06-21T14:10:40.944Z,27.70
2018-06-21T14:13:09.207Z,27.70
2018-06-21T14:15:38.222Z,27.90
2018-06-21T14:18:06.450Z,27.90
2018-06-21T14:20:34.803Z,27.80
2018-06-21T14:23:02.989Z,27.80
2018-06-21T14:25:31.214Z,27.60
2018-06-21T14:27:59.452Z,27.50
2018-06-21T14:30:27.716Z,27.50
2018-06-21T14:32:55.943Z,27.30
2018-06-21T14:35:24.226Z,27.10
2018-06-21T14:37:52.428Z,27.00
2018-06-21T14:40:20.638Z,26.90
2018-06-21T14:42:48.929Z,26.70
2018-06-21T14:45:17.136Z,26.60
2018-06-21T14:47:45.414Z,26.70
2018-06-21T14:50:13.596Z,26.80
2018-06-21T14:52:41.836Z,26.80
2018-06-21T14:55:10.081Z,26.90
2018-06-21T14:57:38.288Z,27.00
2018-06-21T15:00:07.270Z,27.00
2018-06-21T15:02:35.545Z,27.00
2018-06-21T15:05:03.809Z,27.00
2018-06-21T15:07:32.020Z,26.80
2018-06-21T15:10:01.031Z,26.50
2018-06-21T15:12:29.248Z,26.50
2018-06-21T15:14:57.458Z,26.50
2018-06-21T15:17:26.506Z,26.50
2018-06-21T15:19:54.696Z,26.50
2018-06-21T15:22:22.940Z,26.30
2018-06-21T15:24:51.213Z,26.30
2018-06-21T15:27:19.416Z,26.30
2018-06-21T15:29:47.676Z,26.40
2018-06-21T15:32:15.930Z,26.30
2018-06-21T15:34:44.151Z,26.30
2018-06-21T15:37:12.423Z,26.20
2018-06-21T15:39:40.665Z,26.10
2018-06-21T15:42:08.880Z,26.00
2018-06-21T15:44:37.173Z,25.90
2018-06-21T15:47:05.427Z,25.80
2018-06-21T15:49:33.631Z,25.70
2018-06-21T15:52:01.908Z,25.70
2018-06-21T15:54:30.160Z,25.70
2018-06-21T15:56:58.892Z,25.60
2018-06-21T15:59:27.904Z,25.50
2018-06-21T16:01:56.139Z,25.40
2018-06-21T16:04:24.354Z,25.30
2018-06-21T16:06:52.639Z,25.20
2018-06-21T16:09:20.853Z,25.20
2018-06-21T16:11:49.123Z,25.00
2018-06-21T16:14:17.348Z,25.00
2018-06-21T16:16:45.552Z,24.90
2018-06-21T16:19:13.760Z,24.90
2018-06-21T16:21:41.980Z,25.00
2018-06-21T16:24:10.194Z,25.10
2018-06-21T16:26:38.472Z,25.20
2018-06-21T16:29:06.691Z,25.30
2018-06-21T16:31:35.702Z,25.50
2018-06-21T16:34:03.915Z,25.50
2018-06-21T16:36:32.157Z,25.50
2018-06-21T16:39:00.373Z,25.60
2018-06-21T16:41:28.614Z,25.70
2018-06-21T16:43:56.828Z,25.80
2018-06-21T16:46:25.103Z,25.90
2018-06-21T16:48:53.744Z,26.00
2018-06-21T16:51:22.758Z,26.10
2018-06-21T16:53:50.994Z,26.10
2018-06-21T16:56:19.260Z,26.20
2018-06-21T16:58:47.468Z,26.30
2018-06-21T17:01:15.698Z,26.30
2018-06-21T17:03:43.929Z,26.30
2018-06-21T17:06:12.132Z,26.30
2018-06-21T17:08:40.364Z,26.40
2018-06-21T17:11:09.392Z,26.30
2018-06-21T17:13:37.656Z,26.30
2018-06-21T17:16:05.906Z,26.40
2018-06-21T17:18:34.993Z,26.30
2018-06-21T17:21:03.218Z,26.30
2018-06-21T17:23:31.457Z,26.20
2018-06-21T17:26:00.476Z,25.80
2018-06-21T17:28:28.747Z,25.80
2018-06-21T17:30:56.948Z,25.60
2018-06-21T17:33:25.252Z,25.50
2018-06-21T17:35:53.442Z,25.30
2018-06-21T17:38:21.659Z,25.10
2018-06-21T17:40:49.920Z,25.00
2018-06-21T17:43:18.181Z,24.80
2018-06-21T17:45:47.206Z,24.50
2018-06-21T17:48:15.466Z,24.50
2018-06-21T17:50:44.436Z,24.10
2018-06-21T17:53:12.669Z,24.10
2018-06-21T17:55:40.932Z,24.00
2018-06-21T17:58:09.293Z,23.90
2018-06-21T18:00:37.427Z,23.90
2018-06-21T18:03:05.658Z,23.90
2018-06-21T18:05:33.890Z,23.80
2018-06-21T18:08:02.173Z,23.90
2018-06-21T18:10:30.374Z,23.80
2018-06-21T18:12:59.403Z,23.90
2018-06-21T18:15:27.950Z,23.90
2018-06-21T18:17:57.020Z,23.80
2018-06-21T18:20:25.281Z,23.80
2018-06-21T18:22:53.531Z,23.90
2018-06-21T18:25:21.734Z,23.90
2018-06-21T18:27:49.980Z,23.70
2018-06-21T18:30:18.218Z,23.70
2018-06-21T18:32:47.264Z,23.50
2018-06-21T18:35:15.485Z,23.40
2018-06-21T18:37:44.495Z,23.30
2018-06-21T18:40:13.464Z,23.20
2018-06-21T18:42:41.730Z,23.10
2018-06-21T18:45:10.004Z,23.00
2018-06-21T18:47:38.238Z,22.90
2018-06-21T18:50:06.505Z,22.80
2018-06-21T18:52:35.519Z,22.60
2018-06-21T18:55:03.775Z,22.60
2018-06-21T18:57:32.801Z,22.40
2018-06-21T19:00:01.013Z,22.40
2018-06-21T19:02:29.242Z,22.30
2018-06-21T19:04:57.457Z,22.10
2018-06-21T19:07:32.401Z,22.00
2018-06-21T19:10:08.013Z,21.80
2018-06-21T19:12:36.247Z,21.80
2018-06-21T19:15:05.236Z,21.60
2018-06-21T19:17:34.519Z,21.60
2018-06-21T19:20:02.730Z,21.50
2018-06-21T19:22:30.990Z,21.50
2018-06-21T19:24:59.976Z,21.30
2018-06-21T19:27:29.013Z,21.20
2018-06-21T19:29:57.279Z,21.20
2018-06-21T19:32:25.500Z,21.20
2018-06-21T19:34:53.759Z,21.10
2018-06-21T19:37:22.051Z,21.00
2018-06-21T19:39:50.255Z,21.00
2018-06-21T19:42:19.313Z,20.90
2018-06-21T19:44:47.560Z,20.90
2018-06-21T19:47:15.836Z,20.80
2018-06-21T19:49:44.094Z,20.80
2018-06-21T19:52:12.324Z,20.80
2018-06-21T19:54:40.549Z,20.60
2018-06-21T19:57:08.793Z,20.60
2018-06-21T19:59:37.045Z,20.60
2018-06-21T20:02:05.317Z,20.50
2018-06-21T20:04:33.599Z,20.40
2018-06-21T20:07:01.848Z,20.30
2018-06-21T20:09:30.063Z,20.20
2018-06-21T20:11:58.332Z,20.10
2018-06-21T20:14:27.345Z,20.00
2018-06-21T20:16:55.577Z,20.00
2018-06-21T20:19:23.788Z,19.90
2018-06-21T20:21:52.026Z,19.80
2018-06-21T20:24:20.248Z,19.80
2018-06-21T20:26:48.484Z,19.70
2018-06-21T20:29:16.757Z,19.60
2018-06-21T20:31:44.939Z,19.60
2018-06-21T20:34:13.182Z,19.50
2018-06-21T20:36:42.157Z,19.40
2018-06-21T20:39:11.478Z,19.30
2018-06-21T20:41:40.436Z,19.30
2018-06-21T20:44:08.752Z,19.20
2018-06-21T20:46:37.056Z,19.10
2018-06-21T20:49:05.303Z,19.10
2018-06-21T20:51:33.512Z,19.00
2018-06-21T20:54:01.790Z,19.00
2018-06-21T20:56:30.034Z,18.80
2018-06-21T20:58:59.057Z,18.70
2018-06-21T21:01:27.300Z,18.70
2018-06-21T21:03:56.295Z,18.50
2018-06-21T21:06:24.514Z,18.50
2018-06-21T21:08:52.743Z,18.40
2018-06-21T21:11:21.772Z,18.30
2018-06-21T21:13:50.040Z,18.30
2018-06-21T21:16:18.311Z,18.20
2018-06-21T21:18:46.535Z,18.20
2018-06-21T21:21:14.805Z,18.00
2018-06-21T21:23:43.031Z,18.00
2018-06-21T21:26:11.255Z,17.90
2018-06-21T21:28:39.581Z,17.80
2018-06-21T21:31:07.766Z,17.70
2018-06-21T21:33:36.034Z,17.70
2018-06-21T21:36:05.016Z,17.50
2018-06-21T21:38:33.237Z,17.50
2018-06-21T21:41:01.439Z,17.50
2018-06-21T21:43:29.716Z,17.40
2018-06-21T21:45:58.064Z,17.40
2018-06-21T21:48:26.302Z,17.30
2018-06-21T21:50:55.292Z,17.20
2018-06-21T21:53:23.506Z,17.10
2018-06-21T21:55:51.825Z,17.20
2018-06-21T21:58:20.094Z,17.20
2018-06-21T22:00:48.308Z,17.10
2018-06-21T22:03:17.340Z,17.10
2018-06-21T22:05:45.551Z,17.00
2018-06-21T22:08:13.811Z,17.00
2018-06-21T22:10:42.023Z,17.00
2018-06-21T22:13:11.065Z,17.00
2018-06-21T22:15:39.214Z,16.90
2018-06-21T22:18:07.452Z,16.90
2018-06-21T22:20:35.703Z,16.80
2018-06-21T22:23:03.982Z,16.80
2018-06-21T22:25:32.226Z,16.80
2018-06-21T22:28:00.491Z,16.70
2018-06-21T22:30:29.481Z,16.70
2018-06-21T22:32:58.472Z,16.70
2018-06-21T22:35:27.521Z,16.60
2018-06-21T22:37:55.730Z,16.60
2018-06-21T22:40:23.939Z,16.60
2018-06-21T22:42:52.217Z,16.50
2018-06-21T22:45:21.167Z,16.40
2018-06-21T22:47:49.427Z,16.40
2018-06-21T22:50:17.679Z,16.40
2018-06-21T22:52:45.940Z,16.30
2018-06-21T22:55:14.197Z,16.30
2018-06-21T22:57:43.190Z,16.10
2018-06-21T23:00:12.175Z,16.10
2018-06-21T23:02:41.223Z,16.10
2018-06-21T23:05:09.410Z,16.10
2018-06-21T23:07:37.675Z,16.10
2018-06-21T23:10:05.884Z,16.00
2018-06-21T23:12:34.108Z,16.00
2018-06-21T23:15:02.353Z,16.00
2018-06-21T23:17:31.439Z,15.90
2018-06-21T23:19:59.644Z,15.90
2018-06-21T23:22:27.874Z,15.80
2018-06-21T23:24:56.084Z,15.80
2018-06-21T23:27:24.311Z,15.70
2018-06-21T23:29:52.571Z,15.70
2018-06-21T23:32:20.843Z,15.70
2018-06-21T23:34:49.047Z,15.60
2018-06-21T23:37:17.309Z,15.60
2018-06-21T23:39:45.502Z,15.60
2018-06-21T23:42:13.722Z,15.50
2018-06-21T23:44:41.992Z,15.50
2018-06-21T23:47:10.958Z,15.40
2018-06-21T23:49:39.185Z,15.40
2018-06-21T23:52:07.400Z,15.40
2018-06-21T23:54:35.626Z,15.30
2018-06-21T23:57:03.849Z,15.30
2018-06-21T23:59:32.075Z,15.20
